LTCK/MSR METAR and TAF weather

Enter ICAO airport designator
Station Type Date Time Source
LTCK METAR 2020/10/20 13:50 UTC NOAA

LTCK 201350Z 22008KT 9999 FEW040 SCT080 22/03 Q1020


Station Type Date Time Source
LTCK Decoded METAR 2020/10/20 13:50 UTC NOAA

Mus Tur-Afb , Turkey (LTCK) 38-45N 041-40E
Oct 20, 2020 - 09:50 AM EDT / 2020.10.20 1350 UTC
Wind: from the SW (220 degrees) at 9 MPH (8 KT):0
Visibility: greater than 7 mile(s):0
Sky conditions: partly cloudy
Temperature: 71 F (22 C)
Dew Point: 37 F (3 C)
Relative Humidity: 28%
Pressure (altimeter): 30.12 in. Hg (1020 hPa)
ob: LTCK 201350Z 22008KT 9999 FEW040 SCT080 22/03 Q1020
cycle: 14

Station Type Date Time Source
LTCK TAF UTC NOAA

Error!

Example: see airport list